»·PEaware :: N1090J KAPA-KEGE

N1090J :: KAPA-KEGE

FLIGHT INFORMATION

Flight Status: Arrived
Operator: Privately registered:
United States
More flights under this callsign
Pilot: Oliver M. (16871)
Aircraft: CESSNA 172 SKYHAWK
(C172)
More flights by this aircraft type
Origin: KAPA Centennial
United States
Destination: KEGE Eagle Co Regl
United States
More flights between these airports :: More routes between these airports
Route: BJC RLG
File this flight plan on PilotEdge
Remarks:
Altitude:
(Current/Filed)
12,500ft
Speed:
(Current/Filed)
124kts
Departed: 26-May-18 07:31 PM
Arrived: 26-May-18 08:44 PM
Distance/Time
Traveled:
95nm/1:12
Distance/Time
To Go:
Arrived

Flight Plot

Page will automatically refresh every two minutes.


Map Options




Map Legend


Flown Route
Filed Route
Departure Airport
Arrival Airport
Navaid (VOR, NDB)
Fix

Horizontal Profiles

Position Reports

Time Latitude Longitude Heading Altitude Ground
Speed
26-May-18 19:07 39.580273 -104.848825 89 5802ft 0kts
26-May-18 19:08 39.580273 -104.848825 89 5802ft 0kts
26-May-18 19:09 39.580273 -104.848825 89 5802ft 0kts
26-May-18 19:10 39.580273 -104.848825 89 5802ft 0kts
26-May-18 19:11 39.580273 -104.848825 89 5802ft 0kts
26-May-18 19:12 39.580273 -104.848825 89 5802ft 0kts
26-May-18 19:13 39.580273 -104.848825 89 5802ft 0kts
26-May-18 19:14 39.580273 -104.848825 89 5802ft 0kts
26-May-18 19:15 39.580273 -104.848825 89 5802ft 0kts
26-May-18 19:16 39.580273 -104.848825 89 5802ft 0kts
26-May-18 19:17 39.580273 -104.848825 89 5802ft 0kts
26-May-18 19:18 39.580273 -104.848825 89 5802ft 0kts
26-May-18 19:19 39.580273 -104.848825 89 5802ft 0kts
26-May-18 19:20 39.580273 -104.848825 89 5802ft 0kts
26-May-18 19:21 39.580273 -104.848824 89 5802ft 0kts
26-May-18 19:22 39.580116 -104.848799 88 5802ft 0kts
26-May-18 19:23 39.580184 -104.848794 87 5802ft 0kts
26-May-18 19:24 39.580184 -104.848794 87 5802ft 0kts
26-May-18 19:25 39.580184 -104.848794 87 5802ft 0kts
26-May-18 19:26 39.580176 -104.848856 307 5802ft 0kts
26-May-18 19:27 39.581876 -104.849947 356 5801ft 15kts
26-May-18 19:28 39.584106 -104.850246 269 5798ft 0kts
26-May-18 19:29 39.584106 -104.850246 269 5798ft 0kts
26-May-18 19:30 39.582596 -104.851810 166 5802ft 40kts
26-May-18 19:31 39.565126 -104.850741 176 6266ft 70kts
26-May-18 19:32 39.551954 -104.846972 84 6761ft 67kts
26-May-18 19:33 39.561141 -104.830987 354 7267ft 77kts
26-May-18 19:34 39.579525 -104.834392 307 7685ft 87kts
26-May-18 19:35 39.581170 -104.867675 269 7924ft 112kts
26-May-18 19:36 39.579154 -104.905799 263 8300ft 105kts
26-May-18 19:37 39.576374 -104.942987 264 8632ft 106kts
26-May-18 19:38 39.574626 -104.981030 289 8949ft 107kts
26-May-18 19:39 39.591958 -105.011855 307 9258ft 107kts
26-May-18 19:40 39.610409 -105.042344 308 9551ft 107kts
26-May-18 19:41 39.629149 -105.072919 308 9788ft 112kts
26-May-18 19:42 39.648381 -105.104287 307 10210ft 88kts
26-May-18 19:43 39.668122 -105.116512 354 10692ft 85kts
26-May-18 19:44 39.691799 -105.118990 354 11149ft 86kts
26-May-18 19:45 39.715059 -105.121300 355 11587ft 87kts
26-May-18 19:46 39.738856 -105.123600 355 12034ft 87kts
26-May-18 19:47 39.763218 -105.125916 355 12485ft 88kts
26-May-18 19:48 39.787675 -105.128194 355 12911ft 88kts
26-May-18 19:49 39.812489 -105.130474 355 13253ft 96kts
26-May-18 19:50 39.836958 -105.132589 355 13303ft 110kts
26-May-18 19:51 39.867407 -105.135252 355 13436ft 110kts
26-May-18 19:52 39.897671 -105.138103 354 13559ft 110kts
26-May-18 19:53 39.924236 -105.151396 281 13669ft 110kts
26-May-18 19:54 39.918319 -105.190297 268 13775ft 111kts
26-May-18 19:55 39.919843 -105.230330 274 13874ft 111kts
26-May-18 19:56 39.922653 -105.270396 275 13967ft 111kts
26-May-18 19:57 39.925585 -105.311188 275 13991ft 115kts
26-May-18 19:58 39.928610 -105.352861 275 13990ft 115kts
26-May-18 19:59 39.931626 -105.394649 275 13990ft 116kts
26-May-18 20:00 39.934645 -105.436592 275 13990ft 116kts
26-May-18 20:01 39.937631 -105.478404 275 13990ft 116kts
26-May-18 20:02 39.940634 -105.520376 275 13990ft 116kts
26-May-18 20:03 39.943576 -105.561891 275 13990ft 116kts
26-May-18 20:04 39.946522 -105.603653 275 13990ft 116kts
26-May-18 20:05 39.949423 -105.645033 275 13990ft 116kts
26-May-18 20:06 39.952236 -105.685253 274 13990ft 116kts
26-May-18 20:07 39.955154 -105.727181 274 13990ft 116kts
26-May-18 20:08 39.958041 -105.768986 274 13990ft 116kts
26-May-18 20:09 39.961024 -105.812367 274 13780ft 128kts
26-May-18 20:10 39.964196 -105.858523 274 13386ft 130kts
26-May-18 20:11 39.967441 -105.905652 274 12986ft 130kts
26-May-18 20:12 39.970570 -105.951820 274 12585ft 126kts
26-May-18 20:13 39.973488 -105.995159 274 12490ft 114kts
26-May-18 20:14 39.976153 -106.035263 274 12490ft 108kts
26-May-18 20:15 39.978720 -106.073912 274 12490ft 107kts
26-May-18 20:16 39.981250 -106.112363 274 12490ft 106kts
26-May-18 20:17 39.983782 -106.150843 274 12490ft 106kts
26-May-18 20:18 39.986297 -106.189282 274 12490ft 106kts
26-May-18 20:19 39.988800 -106.227739 274 12490ft 106kts
26-May-18 20:20 39.991291 -106.266200 274 12490ft 106kts
26-May-18 20:21 39.993758 -106.304515 274 12490ft 106kts
26-May-18 20:22 39.996220 -106.343014 274 12490ft 106kts
26-May-18 20:23 39.998686 -106.381563 274 12490ft 106kts
26-May-18 20:24 40.001115 -106.419973 274 12490ft 106kts
26-May-18 20:25 39.992603 -106.454089 227 12490ft 106kts
26-May-18 20:26 39.972371 -106.482208 226 12490ft 106kts
26-May-18 20:27 39.951582 -106.509553 216 12490ft 106kts
26-May-18 20:28 39.926004 -106.528724 208 12490ft 106kts
26-May-18 20:29 39.900045 -106.547161 208 12490ft 106kts
26-May-18 20:30 39.874044 -106.565548 208 12490ft 106kts
26-May-18 20:31 39.848038 -106.583925 208 12490ft 106kts
26-May-18 20:32 39.822086 -106.602248 208 12490ft 106kts
26-May-18 20:33 39.796055 -106.620607 208 12490ft 106kts
26-May-18 20:34 39.770109 -106.638881 208 12490ft 106kts
26-May-18 20:35 39.744945 -106.656611 208 12487ft 107kts
26-May-18 20:36 39.716257 -106.677854 203 12035ft 128kts
26-May-18 20:37 39.686886 -106.699576 209 11841ft 123kts
26-May-18 20:38 39.668442 -106.735655 254 10797ft 126kts
26-May-18 20:39 39.661315 -106.778660 244 9265ft 124kts
26-May-18 20:40 39.654693 -106.819748 261 8071ft 114kts
26-May-18 20:41 39.649905 -106.854235 260 7617ft 70kts
26-May-18 20:42 39.646636 -106.881643 262 7046ft 75kts
26-May-18 20:43 39.643710 -106.908249 261 6553ft 66kts
26-May-18 20:44 39.641629 -106.917507 168 6549ft 0kts
26-May-18 20:45 39.641087 -106.913668 180 6549ft 11kts
26-May-18 20:46 39.641067 -106.912849 110 6549ft 0kts

Navigation Log

Ident Type
Flight plan parsing failed, navigation log unavailable